Terminal Aerodrome Forecast
Issued by NWS

Home | Current Version | Previous Version | Text Only | Print | Product List | Glossary On
Versions: 1 2 3 4 5 6 7 8 9 10 11 12 13 14 15 16
000
FTUS44 KCRP 282339
TAFLRD
TAF
KLRD 282339Z 2900/2924 13014G21KT P6SM VCTS SCT050CB OVC120
      TEMPO 2900/2902 VRB20G30KT 5SM TSRA BKN040CB
     FM290300 14010KT P6SM SCT040 BKN150
     FM290800 14006KT P6SM SCT015 BKN200
      TEMPO 2910/2914 BKN015
     FM291500 15011KT P6SM SCT030 BKN200
     FM292000 14014KT P6SM SCT050 BKN250=

USA.gov is the U.S. government's official web portal to all federal, state and local government web resources and services.